Time;durP1;ratioP1;P1;durP2;ratioP2;P2;SDS_P1;SDS_P2;PMS_P1;PMS_P2;Temp;Humidity;BMP_temperature;BMP_pressure;BME280_temperature;BME280_humidity;BME280_pressure;Samples;Min_cycle;Max_cycle;Signal;HPM_P1;HPM_P2
2023/06/13 00:01:25;;;;;;;10.65;4.50;;;18.20;99.90;;;;;;5093291;28;20044;-78
2023/06/13 00:03:53;;;;;;;7.72;4.82;;;18.20;99.90;;;;;;5092971;28;20048;-78
2023/06/13 00:06:19;;;;;;;7.63;4.95;;;18.10;99.90;;;;;;5092841;28;20040;-78
2023/06/13 00:08:44;;;;;;;7.50;4.97;;;18.10;99.90;;;;;;5094244;28;20378;-78
2023/06/13 00:11:10;;;;;;;11.60;4.38;;;18.10;99.90;;;;;;5094231;28;20044;-78
2023/06/13 00:13:39;;;;;;;11.85;4.28;;;18.10;99.90;;;;;;5092729;28;20410;-77
2023/06/13 00:16:05;;;;;;;7.80;4.60;;;18.00;99.90;;;;;;5093978;28;20554;-78
2023/06/13 00:18:31;;;;;;;8.68;5.10;;;18.00;99.90;;;;;;5094165;28;20070;-78
2023/06/13 00:20:58;;;;;;;8.60;4.78;;;18.00;99.90;;;;;;5093003;28;20043;-78
2023/06/13 00:23:25;;;;;;;7.90;4.28;;;18.00;99.90;;;;;;5092349;28;20056;-78
2023/06/13 00:25:52;;;;;;;7.10;4.45;;;17.90;99.90;;;;;;5093896;28;20047;-79
2023/06/13 00:28:18;;;;;;;9.85;4.50;;;17.90;99.90;;;;;;5092541;28;20047;-80
2023/06/13 00:30:45;;;;;;;11.15;4.60;;;17.80;99.90;;;;;;5091898;28;20056;-89
2023/06/13 00:33:17;;;;;;;7.75;4.60;;;17.80;99.90;;;;;;5092744;28;20052;-84
2023/06/13 00:35:44;;;;;;;6.22;3.92;;;17.70;99.90;;;;;;5093788;28;20040;-78
2023/06/13 00:38:10;;;;;;;8.88;4.38;;;17.70;99.90;;;;;;5093746;28;20042;-78
2023/06/13 00:40:36;;;;;;;7.90;4.30;;;17.60;99.90;;;;;;5093566;28;20055;-78
2023/06/13 00:43:02;;;;;;;9.40;4.40;;;17.50;99.90;;;;;;5093786;28;20119;-78
2023/06/13 00:45:29;;;;;;;6.35;4.28;;;17.50;99.90;;;;;;5092308;28;20130;-78
2023/06/13 00:47:58;;;;;;;8.43;4.57;;;17.50;99.90;;;;;;5093711;28;20048;-78
2023/06/13 00:50:30;;;;;;;9.10;4.70;;;17.40;99.90;;;;;;5093693;28;20048;-78
2023/06/13 00:52:58;;;;;;;9.15;5.03;;;17.30;99.90;;;;;;5092418;28;20101;-78
2023/06/13 00:55:25;;;;;;;12.45;4.50;;;17.30;99.90;;;;;;5092215;28;20044;-78
2023/06/13 00:57:55;;;;;;;10.20;4.03;;;17.30;99.90;;;;;;5092576;28;20121;-78
2023/06/13 01:00:26;;;;;;;8.07;4.13;;;17.20;99.90;;;;;;5092622;28;20036;-78
2023/06/13 01:02:57;;;;;;;7.53;3.95;;;17.20;99.90;;;;;;5093584;28;20051;-78
2023/06/13 01:05:28;;;;;;;11.43;5.28;;;17.10;99.90;;;;;;5093432;28;20089;-78
2023/06/13 01:08:04;;;;;;;8.98;4.35;;;17.10;99.90;;;;;;5093619;28;20048;-78
2023/06/13 01:10:32;;;;;;;5.82;4.00;;;17.00;99.90;;;;;;5093292;28;20506;-78
2023/06/13 01:13:24;;;;;;;9.23;4.63;;;17.00;99.90;;;;;;5093451;28;20063;-78
2023/06/13 01:16:04;;;;;;;6.80;4.28;;;16.90;99.90;;;;;;5093466;28;20079;-78
2023/06/13 01:18:35;;;;;;;8.85;4.95;;;16.90;99.90;;;;;;5093345;28;20040;-78
2023/06/13 01:21:02;;;;;;;9.65;5.20;;;16.80;99.90;;;;;;5093473;28;20055;-78
2023/06/13 01:23:38;;;;;;;7.43;4.40;;;16.80;99.90;;;;;;5093157;28;20064;-78
2023/06/13 01:26:13;;;;;;;10.30;4.60;;;16.70;99.90;;;;;;5093007;28;20550;-78
2023/06/13 01:28:45;;;;;;;9.43;4.75;;;16.70;99.90;;;;;;5091899;28;20388;-78
2023/06/13 01:31:13;;;;;;;9.40;5.05;;;16.60;99.90;;;;;;5091971;28;20044;-78
2023/06/13 01:33:40;;;;;;;6.70;5.10;;;16.50;99.90;;;;;;5093248;28;20528;-78
2023/06/13 01:36:07;;;;;;;7.03;4.82;;;16.50;99.90;;;;;;5093337;28;20040;-78
2023/06/13 01:38:33;;;;;;;14.73;4.53;;;16.50;99.90;;;;;;5093214;28;20097;-78
2023/06/13 01:40:59;;;;;;;9.77;4.80;;;16.40;99.90;;;;;;5093949;28;20131;-78
2023/06/13 01:43:25;;;;;;;7.63;4.65;;;16.40;99.90;;;;;;5095919;28;20479;-78
2023/06/13 01:45:59;;;;;;;7.20;5.28;;;16.30;99.90;;;;;;5096758;28;20391;-78
2023/06/13 01:48:53;;;;;;;8.00;4.63;;;16.30;99.90;;;;;;5095655;28;20044;-78
2023/06/13 01:51:37;;;;;;;7.60;4.88;;;16.30;99.90;;;;;;5096860;28;20547;-78
2023/06/13 01:54:08;;;;;;;7.50;4.65;;;16.20;99.90;;;;;;5096745;28;20510;-78
2023/06/13 01:56:35;;;;;;;6.53;4.72;;;16.20;99.90;;;;;;5095755;28;20044;-77
2023/06/13 01:59:06;;;;;;;7.25;4.95;;;16.20;99.90;;;;;;5096783;28;20055;-78
2023/06/13 02:01:34;;;;;;;10.45;5.57;;;16.20;99.90;;;;;;5096769;28;20058;-78
2023/06/13 02:04:02;;;;;;;8.80;5.32;;;16.10;99.90;;;;;;5095462;28;20104;-78
2023/06/13 02:06:28;;;;;;;7.90;5.30;;;16.10;99.90;;;;;;5096399;28;20052;-78
2023/06/13 02:08:54;;;;;;;16.38;4.85;;;16.10;99.90;;;;;;5096582;28;20400;-78
2023/06/13 02:11:19;;;;;;;8.75;5.10;;;16.10;99.90;;;;;;5095472;28;20040;-78
2023/06/13 02:13:46;;;;;;;7.63;5.05;;;16.10;99.90;;;;;;5096378;28;20479;-78
2023/06/13 02:16:12;;;;;;;9.40;5.25;;;16.00;99.90;;;;;;5095323;28;20115;-78
2023/06/13 02:18:39;;;;;;;10.05;5.25;;;16.00;99.90;;;;;;5096417;28;20051;-77
2023/06/13 02:21:05;;;;;;;10.30;5.15;;;16.00;99.90;;;;;;5095175;28;20044;-78
2023/06/13 02:23:31;;;;;;;6.80;4.95;;;15.90;99.90;;;;;;5094621;28;20121;-78
2023/06/13 02:25:57;;;;;;;10.43;5.95;;;15.90;99.90;;;;;;5096101;28;20528;-78
2023/06/13 02:28:23;;;;;;;7.82;5.55;;;15.80;99.90;;;;;;5096208;28;20054;-78
2023/06/13 02:30:49;;;;;;;7.43;4.97;;;15.80;99.90;;;;;;5096119;28;20039;-78
2023/06/13 02:33:15;;;;;;;8.45;5.45;;;15.80;99.90;;;;;;5096134;28;20048;-78
2023/06/13 02:35:42;;;;;;;9.13;5.28;;;15.70;99.90;;;;;;5096071;28;20036;-78
2023/06/13 02:38:07;;;;;;;9.07;5.38;;;15.70;99.90;;;;;;5095852;28;20564;-78
2023/06/13 02:40:36;;;;;;;8.32;5.22;;;15.70;99.90;;;;;;5095972;28;20048;-77
2023/06/13 02:43:02;;;;;;;8.32;5.20;;;15.60;99.90;;;;;;5095951;28;20113;-78
2023/06/13 02:45:28;;;;;;;9.23;5.82;;;15.60;99.90;;;;;;5095551;28;20484;-78
2023/06/13 02:47:54;;;;;;;8.27;5.72;;;15.60;99.90;;;;;;5094644;28;20048;-78
2023/06/13 02:50:21;;;;;;;10.60;6.05;;;15.50;99.90;;;;;;5095648;28;20492;-78
2023/06/13 02:52:47;;;;;;;6.93;5.82;;;15.50;99.90;;;;;;5093401;28;20123;-78
2023/06/13 02:55:13;;;;;;;9.30;5.60;;;15.50;99.90;;;;;;5094511;28;20055;-78
2023/06/13 02:57:39;;;;;;;9.27;5.50;;;15.50;99.90;;;;;;5094204;28;20044;-78
2023/06/13 03:00:13;;;;;;;7.50;5.53;;;15.50;99.90;;;;;;5095055;28;20054;-77
2023/06/13 03:02:39;;;;;;;9.13;5.90;;;15.50;99.90;;;;;;5093721;28;20055;-78
2023/06/13 03:05:10;;;;;;;8.95;5.45;;;15.50;99.90;;;;;;5093105;28;20044;-78
2023/06/13 03:07:36;;;;;;;11.13;5.97;;;15.50;99.90;;;;;;5093642;28;20052;-78
2023/06/13 03:10:06;;;;;;;13.15;5.72;;;15.40;99.90;;;;;;5093802;28;20036;-78
2023/06/13 03:12:32;;;;;;;14.90;6.07;;;15.50;99.90;;;;;;5095275;28;20048;-78
2023/06/13 03:14:57;;;;;;;7.25;5.28;;;15.40;99.90;;;;;;5093958;28;20110;-78
2023/06/13 03:17:23;;;;;;;8.25;5.88;;;15.40;99.90;;;;;;5095158;28;20561;-78
2023/06/13 03:19:50;;;;;;;9.27;5.93;;;15.40;99.90;;;;;;5093723;28;20046;-78
2023/06/13 03:22:16;;;;;;;9.70;5.85;;;15.40;99.90;;;;;;5093571;28;20174;-77
2023/06/13 03:24:42;;;;;;;7.03;5.63;;;15.30;99.90;;;;;;5094652;28;20138;-78
2023/06/13 03:27:09;;;;;;;10.40;5.20;;;15.30;99.90;;;;;;5094867;28;20052;-78
2023/06/13 03:29:35;;;;;;;9.38;6.85;;;15.40;99.90;;;;;;5094922;28;20044;-78
2023/06/13 03:32:01;;;;;;;8.40;6.10;;;15.40;99.90;;;;;;5094709;28;20040;-77
2023/06/13 03:34:28;;;;;;;7.60;5.43;;;15.30;99.90;;;;;;5094672;28;20101;-77
2023/06/13 03:36:54;;;;;;;8.95;5.43;;;15.30;99.90;;;;;;5094766;28;20122;-78
2023/06/13 03:39:20;;;;;;;12.93;5.57;;;15.40;99.90;;;;;;5094716;28;20123;-78
2023/06/13 03:41:45;;;;;;;9.77;5.10;;;15.40;99.90;;;;;;5093493;28;20498;-78
2023/06/13 03:44:11;;;;;;;7.70;5.03;;;15.40;99.90;;;;;;5094705;28;20084;-78
2023/06/13 03:46:37;;;;;;;9.98;5.78;;;15.40;99.90;;;;;;5094504;28;20068;-78
2023/06/13 03:49:03;;;;;;;7.80;5.32;;;15.50;99.90;;;;;;5093066;28;20101;-78
2023/06/13 03:51:28;;;;;;;10.75;5.28;;;15.50;99.90;;;;;;5093039;28;20048;-78
2023/06/13 03:53:54;;;;;;;10.80;6.18;;;15.50;99.90;;;;;;5094334;28;20048;-78
2023/06/13 03:56:19;;;;;;;12.50;6.35;;;15.50;99.90;;;;;;5093420;28;20052;-78
2023/06/13 03:58:45;;;;;;;10.10;5.55;;;15.60;99.90;;;;;;5094010;28;20044;-77
2023/06/13 04:01:11;;;;;;;7.85;5.35;;;15.60;99.90;;;;;;5094356;28;20048;-78
2023/06/13 04:03:39;;;;;;;7.75;5.60;;;15.60;99.90;;;;;;5093094;28;20055;-78
2023/06/13 04:06:08;;;;;;;6.72;5.18;;;15.70;99.90;;;;;;5093897;28;20135;-78
2023/06/13 04:08:36;;;;;;;9.90;5.85;;;15.70;99.90;;;;;;5092667;28;20510;-78
2023/06/13 04:11:02;;;;;;;9.50;5.93;;;15.80;99.90;;;;;;5094230;28;20100;-78
2023/06/13 04:13:27;;;;;;;11.32;5.93;;;15.90;99.90;;;;;;5092711;28;20506;-78
2023/06/13 04:15:53;;;;;;;11.10;5.72;;;16.00;99.90;;;;;;5093876;28;20130;-78
2023/06/13 04:18:21;;;;;;;8.07;5.47;;;16.00;99.90;;;;;;5092638;28;20120;-78
2023/06/13 04:20:47;;;;;;;8.32;5.95;;;16.20;99.90;;;;;;5092754;28;20173;-77
2023/06/13 04:23:16;;;;;;;8.15;5.70;;;16.20;99.90;;;;;;5093728;28;20074;-78
2023/06/13 04:25:43;;;;;;;10.27;5.30;;;16.40;99.90;;;;;;5092324;28;20048;-78
2023/06/13 04:28:09;;;;;;;9.18;5.50;;;16.40;99.90;;;;;;5093988;28;20059;-78
2023/06/13 04:30:34;;;;;;;8.55;6.05;;;16.50;99.90;;;;;;5093921;28;20475;-78
2023/06/13 04:33:05;;;;;;;8.52;5.10;;;16.60;99.90;;;;;;5092474;28;20044;-78
2023/06/13 04:35:37;;;;;;;7.65;5.03;;;16.80;99.90;;;;;;5092647;28;20097;-77
2023/06/13 04:38:04;;;;;;;9.50;5.35;;;16.80;99.90;;;;;;5092676;28;20484;-78
2023/06/13 04:40:31;;;;;;;7.65;4.95;;;17.00;99.90;;;;;;5093831;28;20036;-79
2023/06/13 04:42:58;;;;;;;10.02;5.47;;;17.00;99.90;;;;;;5093747;28;20080;-77
2023/06/13 04:45:25;;;;;;;6.80;4.65;;;17.10;99.90;;;;;;5092229;28;20083;-78
2023/06/13 04:47:51;;;;;;;7.85;5.03;;;17.30;99.90;;;;;;5092270;28;20052;-78
2023/06/13 04:50:19;;;;;;;7.65;4.75;;;17.30;99.90;;;;;;5092151;28;20123;-78
2023/06/13 04:52:45;;;;;;;8.88;5.13;;;17.40;99.90;;;;;;5093603;28;20051;-78
2023/06/13 04:55:11;;;;;;;7.97;4.97;;;17.40;99.90;;;;;;5093320;28;20373;-78
2023/06/13 04:57:37;;;;;;;11.48;5.10;;;17.50;99.90;;;;;;5092116;28;20486;-79
2023/06/13 05:00:07;;;;;;;7.82;4.80;;;17.60;99.90;;;;;;5093590;28;20051;-79
2023/06/13 05:02:35;;;;;;;8.95;4.63;;;17.80;99.90;;;;;;5092322;28;20528;-91
2023/06/13 05:05:04;;;;;;;8.68;4.95;;;17.90;99.90;;;;;;5093368;28;20048;-77
2023/06/13 05:07:30;;;;;;;7.68;4.60;;;17.90;99.90;;;;;;5093451;28;20044;-78
2023/06/13 05:09:56;;;;;;;9.80;4.07;;;18.00;99.90;;;;;;5093542;28;20048;-78
2023/06/13 05:12:22;;;;;;;10.48;4.72;;;18.20;99.90;;;;;;5093515;28;20040;-79
2023/06/13 05:14:48;;;;;;;8.30;4.50;;;18.20;99.90;;;;;;5093300;28;20044;-78
2023/06/13 05:17:14;;;;;;;5.68;3.90;;;18.20;99.90;;;;;;5095702;28;20042;-78
2023/06/13 05:19:40;;;;;;;7.88;4.28;;;18.20;99.90;;;;;;5095960;28;20086;-77
2023/06/13 05:22:06;;;;;;;7.97;4.22;;;18.30;99.90;;;;;;5097454;28;20067;-78
2023/06/13 05:24:33;;;;;;;5.80;3.90;;;18.50;99.90;;;;;;5097084;28;20058;-79
2023/06/13 05:26:59;;;;;;;6.65;3.95;;;18.60;99.90;;;;;;5095752;28;20449;-79
2023/06/13 05:29:26;;;;;;;9.63;4.18;;;18.70;99.90;;;;;;5096129;28;20067;-79
2023/06/13 05:31:52;;;;;;;7.07;3.78;;;18.80;99.90;;;;;;5097031;28;20398;-78
2023/06/13 05:34:17;;;;;;;7.15;4.72;;;19.00;99.90;;;;;;5097192;28;20044;-79
2023/06/13 05:36:43;;;;;;;6.30;3.83;;;19.10;99.90;;;;;;5097160;28;20047;-79
2023/06/13 05:39:09;;;;;;;8.57;3.85;;;19.10;99.90;;;;;;5097148;28;20082;-79
2023/06/13 05:41:36;;;;;;;7.93;4.10;;;19.20;99.10;;;;;;5097016;28;20056;-79
2023/06/13 05:44:02;;;;;;;6.68;4.00;;;19.20;99.90;;;;;;5096848;28;20064;-79
2023/06/13 05:46:27;;;;;;;6.50;3.58;;;19.40;99.90;;;;;;5096613;28;20454;-77
2023/06/13 05:48:53;;;;;;;7.30;4.13;;;19.50;98.60;;;;;;5096728;28;20040;-78
2023/06/13 05:51:19;;;;;;;8.65;3.85;;;19.60;99.10;;;;;;5096604;28;20487;-79
2023/06/13 05:53:44;;;;;;;9.85;4.65;;;19.80;99.10;;;;;;5095370;28;20047;-79
2023/06/13 05:56:10;;;;;;;10.48;4.38;;;20.00;98.30;;;;;;5096828;28;20036;-79
2023/06/13 05:58:36;;;;;;;5.95;3.78;;;20.00;98.70;;;;;;5095405;28;20411;-79
2023/06/13 06:01:03;;;;;;;8.25;3.88;;;20.20;98.60;;;;;;5095307;28;20048;-79
2023/06/13 06:03:30;;;;;;;6.85;4.25;;;20.30;98.40;;;;;;5095515;28;20381;-79
2023/06/13 06:05:55;;;;;;;6.43;3.70;;;20.20;98.10;;;;;;5095245;28;20043;-79
2023/06/13 06:08:21;;;;;;;7.75;3.83;;;20.20;98.80;;;;;;5096326;28;20044;-79
2023/06/13 06:10:47;;;;;;;9.77;3.95;;;20.40;98.20;;;;;;5096358;28;20024;-78
2023/06/13 06:13:13;;;;;;;7.18;3.80;;;20.30;97.80;;;;;;5095270;28;20448;-79
2023/06/13 06:15:40;;;;;;;6.82;3.70;;;20.40;98.60;;;;;;5094955;28;20446;-77
2023/06/13 06:18:05;;;;;;;6.65;3.30;;;20.50;98.00;;;;;;5096304;28;20048;-79
2023/06/13 06:20:31;;;;;;;6.57;3.33;;;20.40;98.20;;;;;;5095139;28;20464;-79
2023/06/13 06:22:57;;;;;;;5.88;3.63;;;20.40;98.50;;;;;;5087829;28;20064;-78
2023/06/13 06:25:23;;;;;;;6.43;3.72;;;20.60;99.10;;;;;;5077416;28;20059;-78
2023/06/13 06:27:52;;;;;;;6.70;3.90;;;20.90;99.80;;;;;;5072872;28;20048;-78
2023/06/13 06:30:18;;;;;;;6.05;4.07;;;20.80;99.90;;;;;;5074175;28;20131;-78
2023/06/13 06:32:44;;;;;;;6.63;3.50;;;20.80;99.90;;;;;;5074212;28;20135;-77
2023/06/13 06:35:14;;;;;;;8.63;3.95;;;20.90;99.90;;;;;;5075499;28;20072;-77
2023/06/13 06:37:40;;;;;;;6.47;3.55;;;21.00;99.90;;;;;;5074044;28;20044;-76
2023/06/13 06:40:06;;;;;;;6.38;3.78;;;20.90;99.90;;;;;;5075573;28;20070;-78
2023/06/13 06:42:32;;;;;;;5.70;3.72;;;21.10;99.90;;;;;;5074257;28;20103;-78
2023/06/13 06:44:58;;;;;;;7.78;3.40;;;21.30;99.90;;;;;;5073954;28;20489;-78
2023/06/13 06:47:23;;;;;;;8.90;3.78;;;21.10;99.90;;;;;;5074211;28;20044;-78
2023/06/13 06:49:49;;;;;;;5.25;3.65;;;21.20;99.90;;;;;;5075289;28;20086;-79
2023/06/13 06:52:15;;;;;;;6.82;3.88;;;21.30;99.90;;;;;;5075164;28;20045;-78
2023/06/13 06:54:40;;;;;;;7.25;3.40;;;21.30;99.90;;;;;;5075239;28;20054;-78
2023/06/13 06:57:06;;;;;;;5.65;3.38;;;21.30;99.90;;;;;;5075115;28;20036;-76
2023/06/13 06:59:32;;;;;;;5.22;3.80;;;21.20;99.90;;;;;;5074823;28;20044;-77
2023/06/13 07:01:57;;;;;;;8.80;3.58;;;21.50;99.90;;;;;;5075023;28;20055;-76
2023/06/13 07:04:23;;;;;;;7.50;3.80;;;21.30;99.90;;;;;;5074706;28;20040;-77
2023/06/13 07:06:49;;;;;;;7.00;3.45;;;21.30;99.90;;;;;;5074735;28;20396;-79
2023/06/13 07:09:15;;;;;;;6.38;3.25;;;21.60;99.90;;;;;;5075027;28;20472;-78
2023/06/13 07:11:41;;;;;;;6.32;3.42;;;21.50;99.90;;;;;;5073816;28;20480;-77
2023/06/13 07:14:07;;;;;;;6.30;3.55;;;21.50;99.90;;;;;;5073686;28;20037;-79
2023/06/13 07:16:33;;;;;;;6.88;3.60;;;21.40;99.90;;;;;;5074981;28;20040;-76
2023/06/13 07:18:58;;;;;;;8.30;3.50;;;21.50;99.90;;;;;;5073505;28;20377;-78
2023/06/13 07:21:24;;;;;;;4.80;3.17;;;21.40;99.90;;;;;;5074724;28;20050;-77
2023/06/13 07:23:50;;;;;;;6.40;3.17;;;21.50;99.90;;;;;;5073333;28;20040;-81
2023/06/13 07:26:16;;;;;;;5.78;3.53;;;21.60;99.90;;;;;;5073011;28;20491;-77
2023/06/13 07:28:42;;;;;;;5.90;3.22;;;21.20;99.90;;;;;;5074608;28;20044;-79
2023/06/13 07:31:07;;;;;;;6.53;3.28;;;21.40;99.90;;;;;;5076513;28;20037;-78
2023/06/13 07:33:33;;;;;;;6.30;4.22;;;21.50;99.90;;;;;;5094485;28;20044;-78
2023/06/13 07:35:58;;;;;;;7.28;3.30;;;21.80;99.90;;;;;;5093184;28;20091;-77
2023/06/13 07:38:25;;;;;;;6.45;3.35;;;22.00;99.90;;;;;;5094408;28;20092;-77
2023/06/13 07:40:51;;;;;;;6.85;3.80;;;22.10;99.90;;;;;;5094068;28;20126;-81
2023/06/13 07:43:16;;;;;;;6.03;3.47;;;22.10;99.90;;;;;;5093069;28;20122;-85
2023/06/13 07:45:42;;;;;;;9.90;3.30;;;22.10;99.90;;;;;;5094369;28;20036;-78
2023/06/13 07:48:08;;;;;;;9.38;3.60;;;22.10;99.90;;;;;;5094448;28;20483;-78
2023/06/13 07:50:34;;;;;;;5.68;3.72;;;22.30;99.90;;;;;;5094169;28;20079;-78
2023/06/13 07:53:00;;;;;;;6.10;3.35;;;22.20;99.90;;;;;;5094457;28;20068;-78
2023/06/13 07:55:26;;;;;;;4.90;3.35;;;22.20;99.90;;;;;;5094342;28;20516;-78
2023/06/13 07:57:52;;;;;;;4.80;3.35;;;22.10;99.90;;;;;;5092985;28;20039;-77
2023/06/13 08:00:18;;;;;;;4.57;3.42;;;22.10;99.90;;;;;;5094005;28;20407;-77
2023/06/13 08:02:44;;;;;;;6.65;3.65;;;22.30;99.90;;;;;;5093985;28;20074;-78
2023/06/13 08:05:12;;;;;;;7.75;3.55;;;22.30;99.90;;;;;;5092816;28;20044;-78
2023/06/13 08:07:37;;;;;;;6.95;2.90;;;22.00;99.90;;;;;;5094067;28;20044;-79
2023/06/13 08:10:04;;;;;;;8.88;3.90;;;22.40;99.90;;;;;;5094128;28;20391;-78
2023/06/13 08:12:30;;;;;;;7.70;3.33;;;22.20;99.90;;;;;;5093653;28;20035;-79
2023/06/13 08:14:56;;;;;;;9.68;3.63;;;22.40;99.90;;;;;;5093851;28;20038;-77
2023/06/13 08:17:24;;;;;;;11.05;4.22;;;22.10;99.90;;;;;;5093564;28;20123;-79
2023/06/13 08:19:50;;;;;;;10.18;3.15;;;22.20;99.90;;;;;;5092673;28;20048;-78
2023/06/13 08:22:17;;;;;;;7.82;3.28;;;22.20;99.90;;;;;;5093654;28;20044;-78
2023/06/13 08:24:43;;;;;;;9.75;3.22;;;22.10;99.90;;;;;;5092171;28;20423;-77
2023/06/13 08:27:10;;;;;;;14.27;4.07;;;22.10;99.90;;;;;;5093275;28;20078;-78
2023/06/13 08:29:36;;;;;;;12.52;3.70;;;22.50;99.90;;;;;;5092218;28;20052;-80
2023/06/13 08:32:02;;;;;;;8.95;3.25;;;22.10;99.90;;;;;;5093609;28;20051;-77
2023/06/13 08:34:28;;;;;;;6.90;3.22;;;22.40;99.90;;;;;;5093435;28;20075;-77
2023/06/13 08:36:54;;;;;;;8.43;3.30;;;22.50;99.90;;;;;;5092127;28;20068;-78
2023/06/13 08:39:23;;;;;;;12.68;3.60;;;22.70;99.90;;;;;;5092152;28;20051;-79
2023/06/13 08:41:49;;;;;;;8.60;3.42;;;22.50;99.90;;;;;;5093495;28;20052;-78
2023/06/13 08:44:16;;;;;;;11.40;4.63;;;22.50;99.90;;;;;;5092142;28;20062;-77
2023/06/13 08:46:42;;;;;;;9.35;3.30;;;22.70;99.90;;;;;;5091911;28;20131;-83
2023/06/13 08:49:09;;;;;;;7.97;3.78;;;22.50;99.90;;;;;;5092298;28;20126;-77
2023/06/13 08:51:36;;;;;;;10.27;3.20;;;22.60;99.90;;;;;;5092545;28;20395;-78
2023/06/13 08:54:04;;;;;;;9.07;3.15;;;22.30;99.90;;;;;;5093438;28;20071;-79
2023/06/13 08:56:37;;;;;;;4.82;2.92;;;22.70;99.90;;;;;;5093491;28;20067;-79
2023/06/13 08:59:08;;;;;;;7.40;3.10;;;22.50;99.90;;;;;;5093095;28;20507;-76
2023/06/13 09:01:38;;;;;;;7.00;2.80;;;22.50;99.90;;;;;;5092191;28;20072;-77
2023/06/13 09:04:06;;;;;;;5.70;2.60;;;22.50;99.90;;;;;;5093280;28;20040;-79
2023/06/13 09:06:33;;;;;;;8.68;2.90;;;22.20;99.90;;;;;;5091923;28;20032;-78
2023/06/13 09:09:00;;;;;;;4.78;2.95;;;21.80;99.90;;;;;;5093396;28;20137;-72
2023/06/13 09:11:28;;;;;;;9.13;3.25;;;21.90;99.90;;;;;;5093101;28;20487;-76
2023/06/13 09:13:58;;;;;;;8.07;3.10;;;22.10;99.90;;;;;;5093107;28;20176;-77
2023/06/13 09:16:24;;;;;;;9.18;3.05;;;22.00;99.90;;;;;;5093199;28;20051;-78
2023/06/13 09:18:51;;;;;;;10.93;3.20;;;22.20;99.90;;;;;;5093097;28;20111;-77
2023/06/13 09:21:17;;;;;;;13.80;3.65;;;22.30;99.90;;;;;;5092928;28;20048;-79
2023/06/13 09:23:43;;;;;;;13.30;3.75;;;22.30;99.90;;;;;;5091684;28;20048;-77
2023/06/13 09:26:10;;;;;;;6.63;2.70;;;22.30;99.90;;;;;;5091892;28;20135;-78
2023/06/13 09:28:40;;;;;;;9.20;2.70;;;22.50;99.90;;;;;;5091880;28;20059;-76
2023/06/13 09:31:10;;;;;;;7.72;2.63;;;22.60;99.90;;;;;;5093033;28;20174;-77
2023/06/13 09:33:36;;;;;;;8.70;2.75;;;23.00;99.90;;;;;;5091592;28;20051;-76
2023/06/13 09:36:04;;;;;;;7.50;2.95;;;23.00;99.90;;;;;;5093221;28;20048;-78
2023/06/13 09:38:34;;;;;;;7.72;2.92;;;22.40;99.90;;;;;;5091829;28;20060;-80
2023/06/13 09:41:02;;;;;;;12.13;3.65;;;22.50;99.90;;;;;;5092936;28;20486;-79
2023/06/13 09:43:28;;;;;;;14.40;3.28;;;22.50;99.90;;;;;;5092859;28;20380;-77
2023/06/13 09:45:54;;;;;;;11.75;3.00;;;22.90;99.90;;;;;;5091512;28;20510;-79
2023/06/13 09:48:20;;;;;;;12.75;3.15;;;22.80;99.90;;;;;;5091717;28;20070;-78
2023/06/13 09:50:47;;;;;;;14.57;3.10;;;22.80;99.90;;;;;;5092764;28;20105;-79
2023/06/13 09:53:13;;;;;;;14.68;3.33;;;22.90;99.90;;;;;;5091792;28;20047;-79
2023/06/13 09:55:38;;;;;;;16.80;4.32;;;23.00;99.90;;;;;;5091761;28;20052;-78
2023/06/13 09:58:04;;;;;;;14.65;3.47;;;22.60;99.90;;;;;;5093022;28;20085;-79
2023/06/13 10:00:30;;;;;;;8.00;3.08;;;22.30;99.90;;;;;;5091623;28;20040;-80
2023/06/13 10:02:56;;;;;;;14.52;3.40;;;22.30;99.90;;;;;;5093218;28;20050;-80
2023/06/13 10:05:23;;;;;;;14.20;3.33;;;22.60;99.90;;;;;;5096536;28;20044;-79
2023/06/13 10:07:48;;;;;;;11.77;3.30;;;22.80;99.90;;;;;;5094960;28;20118;-79
2023/06/13 10:10:14;;;;;;;17.30;3.47;;;22.90;99.90;;;;;;5095204;28;20510;-79
2023/06/13 10:13:02;;;;;;;10.63;3.95;;;22.80;99.90;;;;;;5096459;28;20376;-79
2023/06/13 10:15:51;;;;;;;10.32;3.60;;;22.90;99.90;;;;;;5094749;28;20118;-80
2023/06/13 10:18:21;;;;;;;10.68;3.20;;;22.80;99.90;;;;;;5094847;28;20047;-78
2023/06/13 10:20:48;;;;;;;11.95;2.80;;;22.80;99.90;;;;;;5096271;28;20044;-77
2023/06/13 10:23:18;;;;;;;13.75;2.92;;;23.20;99.90;;;;;;5095817;28;20059;-79
2023/06/13 10:25:48;;;;;;;16.85;4.15;;;22.80;99.90;;;;;;5095882;28;20067;-79
2023/06/13 10:29:00;;;;;;;13.25;3.20;;;23.00;99.90;;;;;;5096061;28;20044;-79
2023/06/13 10:31:36;;;;;;;16.38;3.50;;;22.80;99.90;;;;;;5093387;28;20047;-78
2023/06/13 10:34:11;;;;;;;10.00;2.70;;;23.00;99.90;;;;;;5095772;28;20096;-78
2023/06/13 10:37:05;;;;;;;12.32;3.40;;;23.10;99.90;;;;;;5095645;28;20572;-79
2023/06/13 10:39:52;;;;;;;15.23;3.10;;;22.80;99.90;;;;;;5095812;28;20083;-77
2023/06/13 10:42:45;;;;;;;11.48;2.80;;;22.80;99.90;;;;;;5095510;28;20446;-77
2023/06/13 10:45:21;;;;;;;10.23;2.85;;;22.80;99.90;;;;;;5095805;28;20078;-79
2023/06/13 10:47:47;;;;;;;13.32;4.40;;;22.40;99.90;;;;;;5095492;28;20132;-79
2023/06/13 10:50:16;;;;;;;10.98;3.65;;;22.80;99.90;;;;;;5095645;28;20111;-80
2023/06/13 10:52:48;;;;;;;10.68;3.15;;;22.60;99.90;;;;;;5095689;28;20040;-79
2023/06/13 10:55:25;;;;;;;10.02;3.38;;;22.40;99.90;;;;;;5095646;28;20044;-79
2023/06/13 10:57:59;;;;;;;11.15;2.67;;;22.70;99.90;;;;;;5095058;28;20036;-78
2023/06/13 11:00:35;;;;;;;13.00;3.03;;;22.70;99.90;;;;;;5093944;28;20048;-79
2023/06/13 11:03:05;;;;;;;12.60;3.72;;;22.80;99.90;;;;;;5115827;27;20036;-78
2023/06/13 11:05:33;;;;;;;14.32;2.92;;;22.60;99.90;;;;;;5107892;28;20483;-77
2023/06/13 11:07:59;;;;;;;19.70;3.10;;;22.80;99.90;;;;;;5075158;28;20041;-75
2023/06/13 11:10:25;;;;;;;14.48;3.25;;;22.60;99.90;;;;;;5075122;28;20191;-78
2023/06/13 11:12:54;;;;;;;9.23;2.70;;;22.10;99.90;;;;;;5073867;28;20431;-79
2023/06/13 11:15:25;;;;;;;16.20;3.53;;;22.50;99.90;;;;;;5074467;28;20044;-80
2023/06/13 11:18:03;;;;;;;15.47;3.07;;;22.80;99.90;;;;;;5074710;28;20488;-79
2023/06/13 11:20:31;;;;;;;18.17;3.25;;;22.80;99.90;;;;;;5074851;28;20067;-78
2023/06/13 11:22:57;;;;;;;14.20;3.55;;;22.60;99.90;;;;;;5073459;28;20080;-78
2023/06/13 11:25:23;;;;;;;19.52;3.13;;;22.40;99.90;;;;;;5073673;28;20514;-78
2023/06/13 11:27:50;;;;;;;19.90;3.63;;;22.50;99.90;;;;;;5074604;28;20483;-79
2023/06/13 11:30:17;;;;;;;12.48;2.72;;;22.20;99.90;;;;;;5073520;28;20048;-80
2023/06/13 11:32:43;;;;;;;17.00;3.45;;;22.30;99.90;;;;;;5074760;28;20089;-79
2023/06/13 11:35:10;;;;;;;14.95;2.83;;;22.30;99.90;;;;;;5074630;28;20041;-79
2023/06/13 11:37:44;;;;;;;17.30;4.00;;;22.30;99.90;;;;;;5074575;28;20040;-78
2023/06/13 11:40:34;;;;;;;15.68;2.88;;;22.30;99.90;;;;;;5074524;28;20037;-79
2023/06/13 11:42:59;;;;;;;18.27;3.08;;;22.30;99.90;;;;;;5073483;28;20059;-79
2023/06/13 11:45:26;;;;;;;13.32;3.42;;;22.70;99.90;;;;;;5106480;28;20049;-78
2023/06/13 11:48:01;;;;;;;14.55;3.80;;;22.60;99.90;;;;;;5074381;28;20049;-77
2023/06/13 11:50:27;;;;;;;14.10;3.13;;;22.40;99.90;;;;;;5072953;28;20495;-79
2023/06/13 11:53:06;;;;;;;9.20;2.70;;;22.60;99.90;;;;;;5073080;28;20046;-79
2023/06/13 11:55:32;;;;;;;17.05;4.05;;;22.30;99.90;;;;;;5073256;28;20120;-78
2023/06/13 11:57:58;;;;;;;15.25;3.05;;;22.10;99.90;;;;;;5073066;28;20471;-80
2023/06/13 12:00:27;;;;;;;16.27;3.45;;;22.10;99.90;;;;;;5074239;28;20167;-80
2023/06/13 12:02:58;;;;;;;14.27;3.45;;;22.30;99.90;;;;;;5072912;28;20048;-79
2023/06/13 12:05:25;;;;;;;14.65;3.97;;;21.70;99.90;;;;;;5106563;28;20049;-79
2023/06/13 12:07:51;;;;;;;13.88;4.03;;;22.20;99.90;;;;;;5072509;28;20048;-79
2023/06/13 12:10:17;;;;;;;18.83;3.78;;;22.00;99.90;;;;;;5072507;28;20051;-75
2023/06/13 12:12:56;;;;;;;18.25;4.63;;;21.70;99.90;;;;;;5073993;28;20048;-80
2023/06/13 12:15:26;;;;;;;16.20;3.28;;;22.10;99.90;;;;;;5072736;28;20071;-80
2023/06/13 12:17:57;;;;;;;16.33;3.70;;;22.00;99.90;;;;;;5072699;28;20400;-78
2023/06/13 12:20:24;;;;;;;13.10;3.88;;;21.80;99.90;;;;;;5073889;28;20203;-76
2023/06/13 12:22:59;;;;;;;20.20;3.42;;;22.00;99.90;;;;;;5073525;28;20060;-79
2023/06/13 12:25:31;;;;;;;16.00;3.70;;;21.90;99.90;;;;;;5072345;28;20480;-80
2023/06/13 12:28:01;;;;;;;21.60;4.38;;;22.00;99.90;;;;;;5072285;28;20041;-77
2023/06/13 12:30:29;;;;;;;13.13;3.05;;;21.90;99.90;;;;;;5073576;28;20047;-79
2023/06/13 12:32:57;;;;;;;14.55;3.95;;;21.90;99.90;;;;;;5073424;28;20051;-77
2023/06/13 12:35:29;;;;;;;12.55;4.20;;;22.20;99.90;;;;;;5072250;28;20044;-79
2023/06/13 12:38:00;;;;;;;12.35;3.25;;;21.50;99.90;;;;;;5072473;28;20063;-80
2023/06/13 12:40:33;;;;;;;18.27;3.97;;;22.10;99.90;;;;;;5072584;28;20045;-79
2023/06/13 12:43:02;;;;;;;19.80;4.57;;;21.50;99.90;;;;;;5073604;28;20041;-79
2023/06/13 12:45:29;;;;;;;14.88;3.75;;;21.80;99.90;;;;;;5072061;28;20478;-77
2023/06/13 12:47:58;;;;;;;15.32;3.55;;;21.80;99.90;;;;;;5072072;28;20076;-79